sensor_id;sensor_type;location;lat;lon;timestamp;P1;durP1;ratioP1;P2;durP2;ratioP2
12296;SDS011;6211;49.124;9.152;2023-11-21T00:00:42;1.35;;;1.30;;
12296;SDS011;6211;49.124;9.152;2023-11-21T00:03:10;1.63;;;1.23;;
12296;SDS011;6211;49.124;9.152;2023-11-21T00:05:39;2.83;;;1.33;;
12296;SDS011;6211;49.124;9.152;2023-11-21T00:08:07;1.23;;;1.10;;
12296;SDS011;6211;49.124;9.152;2023-11-21T00:10:35;0.85;;;0.80;;
12296;SDS011;6211;49.124;9.152;2023-11-21T00:13:03;1.67;;;1.10;;
12296;SDS011;6211;49.124;9.152;2023-11-21T00:15:30;2.03;;;1.23;;
12296;SDS011;6211;49.124;9.152;2023-11-21T00:17:59;5.18;;;1.10;;
12296;SDS011;6211;49.124;9.152;2023-11-21T00:20:26;1.65;;;1.13;;
12296;SDS011;6211;49.124;9.152;2023-11-21T00:22:54;3.92;;;1.45;;
12296;SDS011;6211;49.124;9.152;2023-11-21T00:25:21;1.83;;;1.15;;
12296;SDS011;6211;49.124;9.152;2023-11-21T00:27:48;6.05;;;1.08;;
12296;SDS011;6211;49.124;9.152;2023-11-21T00:30:15;1.92;;;0.88;;
12296;SDS011;6211;49.124;9.152;2023-11-21T00:32:42;3.40;;;1.05;;
12296;SDS011;6211;49.124;9.152;2023-11-21T00:35:11;2.20;;;0.85;;
12296;SDS011;6211;49.124;9.152;2023-11-21T00:37:38;0.73;;;0.73;;
12296;SDS011;6211;49.124;9.152;2023-11-21T00:40:06;1.40;;;0.80;;
12296;SDS011;6211;49.124;9.152;2023-11-21T00:42:34;0.80;;;0.80;;
12296;SDS011;6211;49.124;9.152;2023-11-21T00:45:01;1.98;;;0.90;;
12296;SDS011;6211;49.124;9.152;2023-11-21T00:47:29;1.42;;;0.98;;
12296;SDS011;6211;49.124;9.152;2023-11-21T00:49:56;1.10;;;1.00;;
12296;SDS011;6211;49.124;9.152;2023-11-21T00:52:24;1.10;;;1.00;;
12296;SDS011;6211;49.124;9.152;2023-11-21T00:54:52;0.80;;;0.80;;
12296;SDS011;6211;49.124;9.152;2023-11-21T00:57:19;2.58;;;0.93;;
12296;SDS011;6211;49.124;9.152;2023-11-21T00:59:46;2.60;;;1.00;;
12296;SDS011;6211;49.124;9.152;2023-11-21T01:02:13;3.53;;;1.08;;
12296;SDS011;6211;49.124;9.152;2023-11-21T01:04:40;1.67;;;1.10;;
12296;SDS011;6211;49.124;9.152;2023-11-21T01:07:08;1.20;;;0.93;;
12296;SDS011;6211;49.124;9.152;2023-11-21T01:09:37;2.28;;;0.82;;
12296;SDS011;6211;49.124;9.152;2023-11-21T01:12:04;2.13;;;0.95;;
12296;SDS011;6211;49.124;9.152;2023-11-21T01:14:31;1.40;;;0.77;;
12296;SDS011;6211;49.124;9.152;2023-11-21T01:16:59;2.10;;;1.02;;
12296;SDS011;6211;49.124;9.152;2023-11-21T01:19:26;4.07;;;0.80;;
12296;SDS011;6211;49.124;9.152;2023-11-21T01:21:53;0.77;;;0.77;;
12296;SDS011;6211;49.124;9.152;2023-11-21T01:24:23;0.65;;;0.65;;
12296;SDS011;6211;49.124;9.152;2023-11-21T01:26:51;2.45;;;1.10;;
12296;SDS011;6211;49.124;9.152;2023-11-21T01:29:18;1.67;;;0.43;;
12296;SDS011;6211;49.124;9.152;2023-11-21T01:31:45;2.28;;;0.60;;
12296;SDS011;6211;49.124;9.152;2023-11-21T01:34:12;3.30;;;0.70;;
12296;SDS011;6211;49.124;9.152;2023-11-21T01:36:40;0.52;;;0.52;;
12296;SDS011;6211;49.124;9.152;2023-11-21T01:39:07;1.13;;;0.82;;
12296;SDS011;6211;49.124;9.152;2023-11-21T01:41:38;0.70;;;0.70;;
12296;SDS011;6211;49.124;9.152;2023-11-21T01:44:06;1.00;;;0.90;;
12296;SDS011;6211;49.124;9.152;2023-11-21T01:46:34;0.77;;;0.77;;
12296;SDS011;6211;49.124;9.152;2023-11-21T01:49:04;0.70;;;0.70;;
12296;SDS011;6211;49.124;9.152;2023-11-21T01:51:32;1.08;;;0.80;;
12296;SDS011;6211;49.124;9.152;2023-11-21T01:53:59;1.38;;;1.08;;
12296;SDS011;6211;49.124;9.152;2023-11-21T01:56:26;0.75;;;0.75;;
12296;SDS011;6211;49.124;9.152;2023-11-21T01:58:53;1.27;;;0.70;;
12296;SDS011;6211;49.124;9.152;2023-11-21T02:01:23;0.55;;;0.55;;
12296;SDS011;6211;49.124;9.152;2023-11-21T02:03:51;0.52;;;0.52;;
12296;SDS011;6211;49.124;9.152;2023-11-21T02:06:18;3.30;;;1.00;;
12296;SDS011;6211;49.124;9.152;2023-11-21T02:08:47;1.27;;;0.68;;
12296;SDS011;6211;49.124;9.152;2023-11-21T02:11:15;1.00;;;0.88;;
12296;SDS011;6211;49.124;9.152;2023-11-21T02:13:44;4.25;;;1.27;;
12296;SDS011;6211;49.124;9.152;2023-11-21T02:16:12;1.45;;;1.17;;
12296;SDS011;6211;49.124;9.152;2023-11-21T02:18:41;3.88;;;1.50;;
12296;SDS011;6211;49.124;9.152;2023-11-21T02:21:08;4.20;;;2.30;;
12296;SDS011;6211;49.124;9.152;2023-11-21T02:23:36;2.47;;;1.27;;
12296;SDS011;6211;49.124;9.152;2023-11-21T02:26:07;0.73;;;0.73;;
12296;SDS011;6211;49.124;9.152;2023-11-21T02:28:34;0.90;;;0.70;;
12296;SDS011;6211;49.124;9.152;2023-11-21T02:31:03;0.45;;;0.45;;
12296;SDS011;6211;49.124;9.152;2023-11-21T02:33:32;0.60;;;0.60;;
12296;SDS011;6211;49.124;9.152;2023-11-21T02:35:59;3.20;;;0.88;;
12296;SDS011;6211;49.124;9.152;2023-11-21T02:38:27;1.58;;;0.73;;
12296;SDS011;6211;49.124;9.152;2023-11-21T02:40:57;1.27;;;0.80;;
12296;SDS011;6211;49.124;9.152;2023-11-21T02:43:24;2.88;;;0.60;;
12296;SDS011;6211;49.124;9.152;2023-11-21T02:45:51;3.50;;;0.70;;
12296;SDS011;6211;49.124;9.152;2023-11-21T02:48:18;3.00;;;0.85;;
12296;SDS011;6211;49.124;9.152;2023-11-21T02:50:49;0.95;;;0.80;;
12296;SDS011;6211;49.124;9.152;2023-11-21T02:53:16;1.20;;;0.68;;
12296;SDS011;6211;49.124;9.152;2023-11-21T02:55:43;1.75;;;1.00;;
12296;SDS011;6211;49.124;9.152;2023-11-21T02:58:12;3.20;;;0.82;;
12296;SDS011;6211;49.124;9.152;2023-11-21T03:00:39;0.55;;;0.55;;
12296;SDS011;6211;49.124;9.152;2023-11-21T03:03:06;0.95;;;0.80;;
12296;SDS011;6211;49.124;9.152;2023-11-21T03:05:34;1.65;;;1.00;;
12296;SDS011;6211;49.124;9.152;2023-11-21T03:08:02;0.85;;;0.80;;
12296;SDS011;6211;49.124;9.152;2023-11-21T03:10:29;1.85;;;0.60;;
12296;SDS011;6211;49.124;9.152;2023-11-21T03:12:56;1.30;;;0.85;;
12296;SDS011;6211;49.124;9.152;2023-11-21T03:15:25;0.75;;;0.60;;
12296;SDS011;6211;49.124;9.152;2023-11-21T03:17:52;0.98;;;0.90;;
12296;SDS011;6211;49.124;9.152;2023-11-21T03:20:19;0.68;;;0.65;;
12296;SDS011;6211;49.124;9.152;2023-11-21T03:22:46;9.25;;;1.33;;
12296;SDS011;6211;49.124;9.152;2023-11-21T03:25:14;1.35;;;0.68;;
12296;SDS011;6211;49.124;9.152;2023-11-21T03:27:42;0.80;;;0.75;;
12296;SDS011;6211;49.124;9.152;2023-11-21T03:30:10;0.90;;;0.80;;
12296;SDS011;6211;49.124;9.152;2023-11-21T03:32:39;1.15;;;0.80;;
12296;SDS011;6211;49.124;9.152;2023-11-21T03:35:06;2.40;;;0.82;;
12296;SDS011;6211;49.124;9.152;2023-11-21T03:37:33;0.85;;;0.80;;
12296;SDS011;6211;49.124;9.152;2023-11-21T03:40:02;1.33;;;0.77;;
12296;SDS011;6211;49.124;9.152;2023-11-21T03:42:29;0.80;;;0.80;;
12296;SDS011;6211;49.124;9.152;2023-11-21T03:44:56;0.70;;;0.70;;
12296;SDS011;6211;49.124;9.152;2023-11-21T03:47:23;2.28;;;0.80;;
12296;SDS011;6211;49.124;9.152;2023-11-21T03:49:52;0.60;;;0.60;;
12296;SDS011;6211;49.124;9.152;2023-11-21T03:52:19;0.50;;;0.50;;
12296;SDS011;6211;49.124;9.152;2023-11-21T03:54:46;2.03;;;0.80;;
12296;SDS011;6211;49.124;9.152;2023-11-21T03:57:13;0.70;;;0.70;;
12296;SDS011;6211;49.124;9.152;2023-11-21T03:59:40;0.90;;;0.90;;
12296;SDS011;6211;49.124;9.152;2023-11-21T04:02:08;0.80;;;0.80;;
12296;SDS011;6211;49.124;9.152;2023-11-21T04:04:35;1.15;;;0.90;;
12296;SDS011;6211;49.124;9.152;2023-11-21T04:07:04;1.58;;;1.00;;
12296;SDS011;6211;49.124;9.152;2023-11-21T04:09:31;3.28;;;1.30;;
12296;SDS011;6211;49.124;9.152;2023-11-21T04:11:58;1.65;;;1.15;;
12296;SDS011;6211;49.124;9.152;2023-11-21T04:14:25;0.80;;;0.80;;
12296;SDS011;6211;49.124;9.152;2023-11-21T04:16:52;1.75;;;0.80;;
12296;SDS011;6211;49.124;9.152;2023-11-21T04:19:20;1.25;;;0.80;;
12296;SDS011;6211;49.124;9.152;2023-11-21T04:21:47;1.45;;;1.15;;
12296;SDS011;6211;49.124;9.152;2023-11-21T04:24:15;1.38;;;0.88;;
12296;SDS011;6211;49.124;9.152;2023-11-21T04:26:43;0.70;;;0.70;;
12296;SDS011;6211;49.124;9.152;2023-11-21T04:29:10;2.83;;;0.90;;
12296;SDS011;6211;49.124;9.152;2023-11-21T04:31:37;0.70;;;0.70;;
12296;SDS011;6211;49.124;9.152;2023-11-21T04:34:04;2.13;;;0.80;;
12296;SDS011;6211;49.124;9.152;2023-11-21T04:36:31;5.40;;;1.10;;
12296;SDS011;6211;49.124;9.152;2023-11-21T04:38:59;1.52;;;1.10;;
12296;SDS011;6211;49.124;9.152;2023-11-21T04:41:28;2.22;;;1.30;;
12296;SDS011;6211;49.124;9.152;2023-11-21T04:43:56;1.70;;;1.10;;
12296;SDS011;6211;49.124;9.152;2023-11-21T04:46:25;4.57;;;1.25;;
12296;SDS011;6211;49.124;9.152;2023-11-21T04:48:52;1.35;;;1.23;;
12296;SDS011;6211;49.124;9.152;2023-11-21T04:51:19;1.15;;;1.10;;
12296;SDS011;6211;49.124;9.152;2023-11-21T04:53:47;1.33;;;1.20;;
12296;SDS011;6211;49.124;9.152;2023-11-21T04:56:14;3.03;;;1.00;;
12296;SDS011;6211;49.124;9.152;2023-11-21T04:58:43;1.75;;;0.85;;
12296;SDS011;6211;49.124;9.152;2023-11-21T05:01:10;2.65;;;1.15;;
12296;SDS011;6211;49.124;9.152;2023-11-21T05:03:37;2.42;;;1.10;;
12296;SDS011;6211;49.124;9.152;2023-11-21T05:06:05;1.83;;;1.40;;
12296;SDS011;6211;49.124;9.152;2023-11-21T05:08:32;1.98;;;1.20;;
12296;SDS011;6211;49.124;9.152;2023-11-21T05:11:00;2.30;;;1.38;;
12296;SDS011;6211;49.124;9.152;2023-11-21T05:13:27;0.98;;;0.90;;
12296;SDS011;6211;49.124;9.152;2023-11-21T05:15:55;1.55;;;1.45;;
12296;SDS011;6211;49.124;9.152;2023-11-21T05:18:23;3.42;;;1.08;;
12296;SDS011;6211;49.124;9.152;2023-11-21T05:20:52;1.20;;;1.10;;
12296;SDS011;6211;49.124;9.152;2023-11-21T05:23:19;1.00;;;0.70;;
12296;SDS011;6211;49.124;9.152;2023-11-21T05:25:46;2.05;;;1.00;;
12296;SDS011;6211;49.124;9.152;2023-11-21T05:28:14;2.40;;;1.15;;
12296;SDS011;6211;49.124;9.152;2023-11-21T05:30:41;1.73;;;0.95;;
12296;SDS011;6211;49.124;9.152;2023-11-21T05:33:10;2.80;;;1.60;;
12296;SDS011;6211;49.124;9.152;2023-11-21T05:35:37;1.45;;;1.35;;
12296;SDS011;6211;49.124;9.152;2023-11-21T05:38:04;2.13;;;1.05;;
12296;SDS011;6211;49.124;9.152;2023-11-21T05:40:31;1.30;;;1.20;;
12296;SDS011;6211;49.124;9.152;2023-11-21T05:42:58;0.90;;;0.90;;
12296;SDS011;6211;49.124;9.152;2023-11-21T05:45:25;1.25;;;1.10;;
12296;SDS011;6211;49.124;9.152;2023-11-21T05:47:54;1.77;;;1.15;;
12296;SDS011;6211;49.124;9.152;2023-11-21T05:50:22;1.30;;;1.20;;
12296;SDS011;6211;49.124;9.152;2023-11-21T05:52:49;1.40;;;1.30;;
12296;SDS011;6211;49.124;9.152;2023-11-21T05:55:17;1.23;;;1.13;;
12296;SDS011;6211;49.124;9.152;2023-11-21T05:57:46;4.47;;;1.35;;
12296;SDS011;6211;49.124;9.152;2023-11-21T06:00:14;2.65;;;1.13;;
12296;SDS011;6211;49.124;9.152;2023-11-21T06:02:45;1.15;;;0.98;;
12296;SDS011;6211;49.124;9.152;2023-11-21T06:05:12;1.52;;;1.40;;
12296;SDS011;6211;49.124;9.152;2023-11-21T06:07:40;1.48;;;1.00;;
12296;SDS011;6211;49.124;9.152;2023-11-21T06:10:08;1.85;;;1.70;;
12296;SDS011;6211;49.124;9.152;2023-11-21T06:12:36;1.40;;;1.27;;
12296;SDS011;6211;49.124;9.152;2023-11-21T06:15:03;1.33;;;1.23;;
12296;SDS011;6211;49.124;9.152;2023-11-21T06:17:33;1.15;;;1.08;;
12296;SDS011;6211;49.124;9.152;2023-11-21T06:20:01;1.55;;;1.45;;
12296;SDS011;6211;49.124;9.152;2023-11-21T06:22:34;2.22;;;1.30;;
12296;SDS011;6211;49.124;9.152;2023-11-21T06:25:02;1.77;;;1.30;;
12296;SDS011;6211;49.124;9.152;2023-11-21T06:27:30;1.65;;;1.55;;
12296;SDS011;6211;49.124;9.152;2023-11-21T06:29:58;1.73;;;1.55;;
12296;SDS011;6211;49.124;9.152;2023-11-21T06:32:25;1.75;;;1.38;;
12296;SDS011;6211;49.124;9.152;2023-11-21T06:34:54;2.25;;;1.63;;
12296;SDS011;6211;49.124;9.152;2023-11-21T06:37:24;2.05;;;1.60;;
12296;SDS011;6211;49.124;9.152;2023-11-21T06:39:51;2.30;;;2.10;;
12296;SDS011;6211;49.124;9.152;2023-11-21T06:42:20;4.60;;;2.72;;
12296;SDS011;6211;49.124;9.152;2023-11-21T06:44:47;6.00;;;3.13;;
12296;SDS011;6211;49.124;9.152;2023-11-21T06:47:16;4.32;;;2.55;;
12296;SDS011;6211;49.124;9.152;2023-11-21T06:49:45;4.13;;;2.67;;
12296;SDS011;6211;49.124;9.152;2023-11-21T06:52:13;4.97;;;2.30;;
12296;SDS011;6211;49.124;9.152;2023-11-21T06:54:40;1.80;;;1.70;;
12296;SDS011;6211;49.124;9.152;2023-11-21T06:57:07;2.10;;;1.58;;
12296;SDS011;6211;49.124;9.152;2023-11-21T06:59:36;1.90;;;1.63;;
12296;SDS011;6211;49.124;9.152;2023-11-21T07:02:03;2.35;;;1.85;;
12296;SDS011;6211;49.124;9.152;2023-11-21T07:04:31;1.80;;;1.70;;
12296;SDS011;6211;49.124;9.152;2023-11-21T07:06:58;3.75;;;1.88;;
12296;SDS011;6211;49.124;9.152;2023-11-21T07:09:25;2.95;;;2.10;;
12296;SDS011;6211;49.124;9.152;2023-11-21T07:11:53;2.42;;;2.00;;
12296;SDS011;6211;49.124;9.152;2023-11-21T07:14:20;2.10;;;1.65;;
12296;SDS011;6211;49.124;9.152;2023-11-21T07:16:48;1.52;;;1.23;;
12296;SDS011;6211;49.124;9.152;2023-11-21T07:19:17;3.60;;;1.55;;
12296;SDS011;6211;49.124;9.152;2023-11-21T07:21:44;2.28;;;1.83;;
12296;SDS011;6211;49.124;9.152;2023-11-21T07:24:12;1.60;;;1.50;;
12296;SDS011;6211;49.124;9.152;2023-11-21T07:26:39;1.83;;;1.52;;
12296;SDS011;6211;49.124;9.152;2023-11-21T07:29:06;3.25;;;1.88;;
12296;SDS011;6211;49.124;9.152;2023-11-21T07:31:33;4.72;;;1.50;;
12296;SDS011;6211;49.124;9.152;2023-11-21T07:34:02;3.17;;;1.75;;
12296;SDS011;6211;49.124;9.152;2023-11-21T07:36:29;1.80;;;1.50;;
12296;SDS011;6211;49.124;9.152;2023-11-21T07:38:56;2.08;;;1.60;;
12296;SDS011;6211;49.124;9.152;2023-11-21T07:41:23;1.92;;;1.40;;
12296;SDS011;6211;49.124;9.152;2023-11-21T07:43:51;2.10;;;1.67;;
12296;SDS011;6211;49.124;9.152;2023-11-21T07:46:18;2.53;;;1.90;;
12296;SDS011;6211;49.124;9.152;2023-11-21T07:48:47;3.80;;;1.80;;
12296;SDS011;6211;49.124;9.152;2023-11-21T07:51:17;2.30;;;1.83;;
12296;SDS011;6211;49.124;9.152;2023-11-21T07:53:44;2.22;;;2.03;;
12296;SDS011;6211;49.124;9.152;2023-11-21T07:56:11;3.30;;;2.47;;
12296;SDS011;6211;49.124;9.152;2023-11-21T07:58:39;3.05;;;2.08;;
12296;SDS011;6211;49.124;9.152;2023-11-21T08:01:06;5.78;;;2.53;;
12296;SDS011;6211;49.124;9.152;2023-11-21T08:03:33;2.20;;;2.00;;
12296;SDS011;6211;49.124;9.152;2023-11-21T08:06:00;3.28;;;2.40;;
12296;SDS011;6211;49.124;9.152;2023-11-21T08:08:29;4.25;;;2.50;;
12296;SDS011;6211;49.124;9.152;2023-11-21T08:10:57;4.20;;;2.88;;
12296;SDS011;6211;49.124;9.152;2023-11-21T08:13:27;4.85;;;2.50;;
12296;SDS011;6211;49.124;9.152;2023-11-21T08:15:54;3.15;;;2.83;;
12296;SDS011;6211;49.124;9.152;2023-11-21T08:18:23;6.15;;;3.42;;
12296;SDS011;6211;49.124;9.152;2023-11-21T08:20:50;5.72;;;4.28;;
12296;SDS011;6211;49.124;9.152;2023-11-21T08:23:17;4.85;;;2.90;;
12296;SDS011;6211;49.124;9.152;2023-11-21T08:25:46;4.80;;;3.55;;
12296;SDS011;6211;49.124;9.152;2023-11-21T08:28:13;4.78;;;3.22;;
12296;SDS011;6211;49.124;9.152;2023-11-21T08:30:41;3.45;;;2.20;;
12296;SDS011;6211;49.124;9.152;2023-11-21T08:33:09;4.03;;;2.20;;
12296;SDS011;6211;49.124;9.152;2023-11-21T08:35:37;4.07;;;2.45;;
12296;SDS011;6211;49.124;9.152;2023-11-21T08:38:04;2.15;;;1.95;;
12296;SDS011;6211;49.124;9.152;2023-11-21T08:40:31;2.40;;;2.20;;
12296;SDS011;6211;49.124;9.152;2023-11-21T08:43:00;2.90;;;1.85;;
12296;SDS011;6211;49.124;9.152;2023-11-21T08:45:29;4.25;;;2.20;;
12296;SDS011;6211;49.124;9.152;2023-11-21T08:47:59;3.10;;;1.65;;
12296;SDS011;6211;49.124;9.152;2023-11-21T08:50:26;2.13;;;1.85;;
12296;SDS011;6211;49.124;9.152;2023-11-21T08:52:53;3.05;;;2.70;;
12296;SDS011;6211;49.124;9.152;2023-11-21T08:55:20;1.90;;;1.80;;
12296;SDS011;6211;49.124;9.152;2023-11-21T08:57:47;2.22;;;1.75;;
12296;SDS011;6211;49.124;9.152;2023-11-21T09:00:17;2.10;;;1.33;;
12296;SDS011;6211;49.124;9.152;2023-11-21T09:02:44;1.90;;;1.40;;
12296;SDS011;6211;49.124;9.152;2023-11-21T09:05:12;1.48;;;1.30;;
12296;SDS011;6211;49.124;9.152;2023-11-21T09:07:39;3.75;;;1.30;;
12296;SDS011;6211;49.124;9.152;2023-11-21T09:10:07;1.23;;;1.13;;
12296;SDS011;6211;49.124;9.152;2023-11-21T09:12:34;2.47;;;1.08;;
12296;SDS011;6211;49.124;9.152;2023-11-21T09:15:02;1.83;;;1.25;;
12296;SDS011;6211;49.124;9.152;2023-11-21T09:17:32;0.77;;;0.77;;
12296;SDS011;6211;49.124;9.152;2023-11-21T09:19:59;0.85;;;0.85;;
12296;SDS011;6211;49.124;9.152;2023-11-21T09:22:28;0.70;;;0.70;;
12296;SDS011;6211;49.124;9.152;2023-11-21T09:24:56;0.90;;;0.90;;
12296;SDS011;6211;49.124;9.152;2023-11-21T09:27:23;1.00;;;1.00;;
12296;SDS011;6211;49.124;9.152;2023-11-21T09:29:51;2.22;;;1.05;;
12296;SDS011;6211;49.124;9.152;2023-11-21T09:34:47;0.77;;;0.77;;
12296;SDS011;6211;49.124;9.152;2023-11-21T09:37:15;0.80;;;0.80;;
12296;SDS011;6211;49.124;9.152;2023-11-21T09:39:42;1.00;;;0.98;;
12296;SDS011;6211;49.124;9.152;2023-11-21T09:42:10;0.93;;;0.93;;
12296;SDS011;6211;49.124;9.152;2023-11-21T09:44:41;1.65;;;1.15;;
12296;SDS011;6211;49.124;9.152;2023-11-21T09:47:10;3.05;;;2.85;;
12296;SDS011;6211;49.124;9.152;2023-11-21T09:49:41;3.75;;;2.95;;
12296;SDS011;6211;49.124;9.152;2023-11-21T09:52:13;1.60;;;1.48;;
12296;SDS011;6211;49.124;9.152;2023-11-21T09:54:43;1.50;;;1.40;;
12296;SDS011;6211;49.124;9.152;2023-11-21T09:57:10;4.03;;;3.67;;
12296;SDS011;6211;49.124;9.152;2023-11-21T09:59:37;2.95;;;1.52;;
12296;SDS011;6211;49.124;9.152;2023-11-21T10:02:05;1.67;;;1.50;;
12296;SDS011;6211;49.124;9.152;2023-11-21T10:04:37;2.58;;;1.77;;
12296;SDS011;6211;49.124;9.152;2023-11-21T10:07:05;2.55;;;1.92;;
12296;SDS011;6211;49.124;9.152;2023-11-21T10:09:35;2.35;;;1.73;;
12296;SDS011;6211;49.124;9.152;2023-11-21T10:12:04;2.85;;;2.60;;
12296;SDS011;6211;49.124;9.152;2023-11-21T10:14:33;3.10;;;2.17;;
12296;SDS011;6211;49.124;9.152;2023-11-21T10:17:01;1.77;;;1.50;;
12296;SDS011;6211;49.124;9.152;2023-11-21T10:19:28;1.83;;;1.58;;
12296;SDS011;6211;49.124;9.152;2023-11-21T10:21:57;2.38;;;2.10;;
12296;SDS011;6211;49.124;9.152;2023-11-21T10:24:25;3.78;;;1.83;;
12296;SDS011;6211;49.124;9.152;2023-11-21T10:26:54;1.80;;;1.70;;
12296;SDS011;6211;49.124;9.152;2023-11-21T10:29:21;1.70;;;1.60;;
12296;SDS011;6211;49.124;9.152;2023-11-21T10:31:49;1.60;;;1.50;;
12296;SDS011;6211;49.124;9.152;2023-11-21T10:34:16;2.17;;;1.98;;
12296;SDS011;6211;49.124;9.152;2023-11-21T10:36:44;4.32;;;3.00;;
12296;SDS011;6211;49.124;9.152;2023-11-21T10:39:13;10.00;;;6.15;;
12296;SDS011;6211;49.124;9.152;2023-11-21T10:41:43;4.85;;;3.40;;
12296;SDS011;6211;49.124;9.152;2023-11-21T10:44:12;2.50;;;2.00;;
12296;SDS011;6211;49.124;9.152;2023-11-21T10:46:45;7.20;;;3.60;;
12296;SDS011;6211;49.124;9.152;2023-11-21T10:49:15;2.38;;;1.70;;
12296;SDS011;6211;49.124;9.152;2023-11-21T10:51:43;1.75;;;1.60;;
12296;SDS011;6211;49.124;9.152;2023-11-21T10:54:10;3.00;;;1.70;;
12296;SDS011;6211;49.124;9.152;2023-11-21T10:56:38;2.50;;;1.98;;
12296;SDS011;6211;49.124;9.152;2023-11-21T10:59:08;3.00;;;2.75;;
12296;SDS011;6211;49.124;9.152;2023-11-21T11:01:41;2.80;;;2.50;;
12296;SDS011;6211;49.124;9.152;2023-11-21T11:04:09;3.47;;;2.70;;
12296;SDS011;6211;49.124;9.152;2023-11-21T11:06:40;1.73;;;1.48;;
12296;SDS011;6211;49.124;9.152;2023-11-21T11:09:07;1.25;;;1.13;;
12296;SDS011;6211;49.124;9.152;2023-11-21T11:11:37;1.00;;;1.00;;
12296;SDS011;6211;49.124;9.152;2023-11-21T11:14:06;1.90;;;0.95;;
12296;SDS011;6211;49.124;9.152;2023-11-21T11:16:33;4.45;;;1.20;;
12296;SDS011;6211;49.124;9.152;2023-11-21T11:19:01;1.95;;;0.88;;
12296;SDS011;6211;49.124;9.152;2023-11-21T11:21:31;1.10;;;1.00;;
12296;SDS011;6211;49.124;9.152;2023-11-21T11:24:05;1.10;;;0.65;;
12296;SDS011;6211;49.124;9.152;2023-11-21T11:26:37;0.85;;;0.70;;
12296;SDS011;6211;49.124;9.152;2023-11-21T11:29:08;3.63;;;0.60;;
12296;SDS011;6211;49.124;9.152;2023-11-21T11:31:39;0.60;;;0.60;;
12296;SDS011;6211;49.124;9.152;2023-11-21T11:34:14;0.55;;;0.55;;
12296;SDS011;6211;49.124;9.152;2023-11-21T11:36:47;1.42;;;0.60;;
12296;SDS011;6211;49.124;9.152;2023-11-21T11:39:26;2.90;;;0.80;;
12296;SDS011;6211;49.124;9.152;2023-11-21T11:41:54;1.33;;;0.73;;
12296;SDS011;6211;49.124;9.152;2023-11-21T11:47:12;1.13;;;0.98;;
12296;SDS011;6211;49.124;9.152;2023-11-21T11:52:33;1.90;;;0.98;;
12296;SDS011;6211;49.124;9.152;2023-11-21T11:55:00;1.00;;;0.65;;
12296;SDS011;6211;49.124;9.152;2023-11-21T12:00:07;1.05;;;0.82;;
12296;SDS011;6211;49.124;9.152;2023-11-21T12:02:35;0.60;;;0.60;;
12296;SDS011;6211;49.124;9.152;2023-11-21T12:05:07;1.40;;;1.00;;
12296;SDS011;6211;49.124;9.152;2023-11-21T12:07:49;0.60;;;0.60;;
12296;SDS011;6211;49.124;9.152;2023-11-21T12:10:19;1.58;;;0.80;;
12296;SDS011;6211;49.124;9.152;2023-11-21T12:12:47;0.82;;;0.73;;
12296;SDS011;6211;49.124;9.152;2023-11-21T12:15:15;0.70;;;0.70;;
12296;SDS011;6211;49.124;9.152;2023-11-21T12:17:42;1.02;;;0.70;;
12296;SDS011;6211;49.124;9.152;2023-11-21T12:20:10;1.65;;;1.00;;
12296;SDS011;6211;49.124;9.152;2023-11-21T12:22:44;0.95;;;0.93;;
12296;SDS011;6211;49.124;9.152;2023-11-21T12:25:13;0.85;;;0.80;;
12296;SDS011;6211;49.124;9.152;2023-11-21T12:27:43;1.00;;;0.60;;
12296;SDS011;6211;49.124;9.152;2023-11-21T12:30:11;0.80;;;0.80;;
12296;SDS011;6211;49.124;9.152;2023-11-21T12:32:40;0.47;;;0.47;;
12296;SDS011;6211;49.124;9.152;2023-11-21T12:35:08;1.65;;;0.70;;
12296;SDS011;6211;49.124;9.152;2023-11-21T12:37:36;0.60;;;0.60;;
12296;SDS011;6211;49.124;9.152;2023-11-21T12:40:04;0.50;;;0.50;;
12296;SDS011;6211;49.124;9.152;2023-11-21T12:42:33;0.77;;;0.55;;
12296;SDS011;6211;49.124;9.152;2023-11-21T12:45:10;0.60;;;0.60;;
12296;SDS011;6211;49.124;9.152;2023-11-21T12:47:45;1.58;;;0.50;;
12296;SDS011;6211;49.124;9.152;2023-11-21T12:50:12;0.70;;;0.65;;
12296;SDS011;6211;49.124;9.152;2023-11-21T12:52:43;0.57;;;0.50;;
12296;SDS011;6211;49.124;9.152;2023-11-21T12:55:13;0.70;;;0.70;;
12296;SDS011;6211;49.124;9.152;2023-11-21T12:57:42;0.80;;;0.80;;
12296;SDS011;6211;49.124;9.152;2023-11-21T13:00:10;0.63;;;0.63;;
12296;SDS011;6211;49.124;9.152;2023-11-21T13:02:41;0.52;;;0.52;;
12296;SDS011;6211;49.124;9.152;2023-11-21T13:05:08;1.65;;;0.75;;
12296;SDS011;6211;49.124;9.152;2023-11-21T13:07:46;0.45;;;0.45;;
12296;SDS011;6211;49.124;9.152;2023-11-21T13:10:13;0.77;;;0.70;;
12296;SDS011;6211;49.124;9.152;2023-11-21T13:12:44;1.60;;;0.70;;
12296;SDS011;6211;49.124;9.152;2023-11-21T13:15:13;0.88;;;0.88;;
12296;SDS011;6211;49.124;9.152;2023-11-21T13:17:42;0.90;;;0.90;;
12296;SDS011;6211;49.124;9.152;2023-11-21T13:20:09;1.10;;;1.00;;
12296;SDS011;6211;49.124;9.152;2023-11-21T13:22:44;1.15;;;1.10;;
12296;SDS011;6211;49.124;9.152;2023-11-21T13:25:11;1.73;;;1.00;;
12296;SDS011;6211;49.124;9.152;2023-11-21T13:27:39;3.35;;;1.05;;
12296;SDS011;6211;49.124;9.152;2023-11-21T13:30:09;1.02;;;0.98;;
12296;SDS011;6211;49.124;9.152;2023-11-21T13:32:40;1.50;;;1.10;;
12296;SDS011;6211;49.124;9.152;2023-11-21T13:35:07;1.17;;;1.10;;
12296;SDS011;6211;49.124;9.152;2023-11-21T13:37:40;1.45;;;1.35;;
12296;SDS011;6211;49.124;9.152;2023-11-21T13:40:10;1.52;;;1.20;;
12296;SDS011;6211;49.124;9.152;2023-11-21T13:42:40;1.83;;;1.35;;
12296;SDS011;6211;49.124;9.152;2023-11-21T13:45:09;1.58;;;1.27;;
12296;SDS011;6211;49.124;9.152;2023-11-21T13:47:37;1.23;;;1.10;;
12296;SDS011;6211;49.124;9.152;2023-11-21T13:50:05;1.38;;;1.27;;
12296;SDS011;6211;49.124;9.152;2023-11-21T13:52:41;1.77;;;1.35;;
12296;SDS011;6211;49.124;9.152;2023-11-21T13:55:10;2.42;;;1.60;;
12296;SDS011;6211;49.124;9.152;2023-11-21T13:57:40;1.80;;;1.33;;
12296;SDS011;6211;49.124;9.152;2023-11-21T14:00:12;1.50;;;1.40;;
12296;SDS011;6211;49.124;9.152;2023-11-21T14:03:00;1.88;;;1.20;;
12296;SDS011;6211;49.124;9.152;2023-11-21T14:05:33;2.70;;;1.55;;
12296;SDS011;6211;49.124;9.152;2023-11-21T14:08:00;1.77;;;1.50;;
12296;SDS011;6211;49.124;9.152;2023-11-21T14:10:29;3.00;;;1.52;;
12296;SDS011;6211;49.124;9.152;2023-11-21T14:13:05;1.70;;;1.60;;
12296;SDS011;6211;49.124;9.152;2023-11-21T14:15:33;1.75;;;1.60;;
12296;SDS011;6211;49.124;9.152;2023-11-21T14:18:06;2.47;;;1.50;;
12296;SDS011;6211;49.124;9.152;2023-11-21T14:20:35;1.63;;;1.52;;
12296;SDS011;6211;49.124;9.152;2023-11-21T14:23:03;3.83;;;1.73;;
12296;SDS011;6211;49.124;9.152;2023-11-21T14:25:31;2.53;;;1.67;;
12296;SDS011;6211;49.124;9.152;2023-11-21T14:27:58;2.45;;;1.77;;
12296;SDS011;6211;49.124;9.152;2023-11-21T14:30:25;4.82;;;2.30;;
12296;SDS011;6211;49.124;9.152;2023-11-21T14:32:56;4.88;;;2.15;;
12296;SDS011;6211;49.124;9.152;2023-11-21T14:35:23;2.72;;;1.80;;
12296;SDS011;6211;49.124;9.152;2023-11-21T14:37:51;2.65;;;2.10;;
12296;SDS011;6211;49.124;9.152;2023-11-21T14:40:18;2.20;;;1.90;;
12296;SDS011;6211;49.124;9.152;2023-11-21T14:42:49;2.92;;;1.55;;
12296;SDS011;6211;49.124;9.152;2023-11-21T14:45:18;2.30;;;1.67;;
12296;SDS011;6211;49.124;9.152;2023-11-21T14:47:45;2.53;;;1.80;;
12296;SDS011;6211;49.124;9.152;2023-11-21T14:50:22;2.47;;;1.70;;
12296;SDS011;6211;49.124;9.152;2023-11-21T14:53:06;2.55;;;2.17;;
12296;SDS011;6211;49.124;9.152;2023-11-21T14:55:34;2.22;;;1.65;;
12296;SDS011;6211;49.124;9.152;2023-11-21T14:58:17;1.80;;;1.45;;
12296;SDS011;6211;49.124;9.152;2023-11-21T15:00:51;1.88;;;1.40;;
12296;SDS011;6211;49.124;9.152;2023-11-21T15:03:22;1.60;;;1.50;;
12296;SDS011;6211;49.124;9.152;2023-11-21T15:06:09;1.77;;;1.40;;
12296;SDS011;6211;49.124;9.152;2023-11-21T15:08:48;2.95;;;2.08;;
12296;SDS011;6211;49.124;9.152;2023-11-21T15:11:20;1.70;;;1.50;;
12296;SDS011;6211;49.124;9.152;2023-11-21T15:13:50;2.60;;;1.92;;
12296;SDS011;6211;49.124;9.152;2023-11-21T15:16:18;2.13;;;1.92;;
12296;SDS011;6211;49.124;9.152;2023-11-21T15:18:46;2.42;;;1.92;;